Latest Weather Observations for Hobart Airport

IDT60801

Issued at 11:02 am EDT Thursday 8 December 2016 (issued every 30 minutes, with the page automatically refreshed every 10 minutes)

About weather observations | Map of weather stations | Latest weather observations for TAS | Other Formats
Station Details ID: 094008 Name: HOBART AIRPORT Lat: -42.83 Lon: 147.50 Height: 4.0 m
Data from the previous 72 hours. | See also: Recent months at Hobart Airport
Date/Time
EDT
Temp
°C
App
Temp
°C
Dew
Point
°C
Rel
Hum
%
Delta-T
°C
Wind Press
QNH
hPa
Press
MSL
hPa
Rain since
9am
mm
Dir  Spd
km/h
Gust
km/h
Spd
kts
Gust
kts
08/10:30am 14.9 12.3 12.0 83 1.6 N 17 28 9 15 991.1 991.1 0.2
08/10:00am 15.4 12.3 8.8 65 3.4 N 15 26 8 14 992.0 992.0 0.0
08/09:30am 15.2 11.2 8.3 63 3.5 N 19 30 10 16 992.8 992.8 0.0
08/09:00am 13.9 10.0 8.8 71 2.6 NNE 19 28 10 15 993.6 993.6 1.0
08/08:30am 13.4 9.5 9.5 77 2.0 NE 20 30 11 16 995.2 995.2 1.0
08/08:00am 13.5 10.8 9.0 74 2.3 NNE 13 19 7 10 996.8 996.8 0.8
08/07:30am 13.3 10.5 8.5 72 2.4 NNE 13 19 7 10 997.0 997.0 0.8
08/07:00am 13.3 10.5 8.5 72 2.4 N 13 17 7 9 997.7 997.6 0.4
08/06:30am 13.0 10.3 8.9 76 2.1 N 13 24 7 13 998.2 998.1 0.4
08/06:00am 13.5 9.5 8.3 71 2.6 N 19 26 10 14 999.1 999.0 0.0
08/05:30am 14.3 9.2 7.7 64 3.3 N 24 37 13 20 999.4 999.3 0.0
08/05:00am 14.3 10.5 7.4 63 3.4 N 17 39 9 21 1000.0 999.9 0.0
08/04:30am 13.4 11.5 9.1 75 2.2 N 9 15 5 8 1000.2 1000.1 0.0
08/04:00am 13.3 10.3 9.4 77 2.0 NNW 15 24 8 13 1001.2 1001.1 0.0
08/03:30am 12.9 9.0 9.6 80 1.7 NNW 20 30 11 16 1001.7 1001.6 0.0
08/03:00am 13.1 11.3 9.4 78 1.9 N 9 13 5 7 1002.2 1002.1 0.0
08/02:30am 13.0 10.5 9.7 80 1.7 N 13 20 7 11 1002.9 1002.8 0.0
08/02:00am 13.0 10.6 10.1 82 1.5 NNW 13 19 7 10 1003.7 1003.6 0.0
08/01:30am 10.5 10.0 9.3 92 0.6 N 2 6 1 3 1004.5 1004.4 0.0
08/01:00am 11.3 9.9 9.7 90 0.8 SSW 7 9 4 5 1004.8 1004.7 0.0
08/12:30am 11.2 11.1 9.4 89 0.9 CALM 0 0 0 0 1005.5 1005.4 0.0
08/12:00am 12.1 12.2 10.2 88 1.0 CALM 0 0 0 0 1006.7 1006.6 0.0
 
Date/Time
EDT
Temp
°C
App
Temp
°C
Dew
Point
°C
Rel
Hum
%
Delta-T
°C
Wind Press
QNH
hPa
Press
MSL
hPa
Rain since
9am
mm
Dir  Spd
km/h
Gust
km/h
Spd
kts
Gust
kts
07/11:30pm 12.3 12.4 10.2 87 1.1 CALM 0 0 0 0 1007.3 1007.2 0.0
07/11:00pm 12.4 11.3 10.1 86 1.2 NE 6 7 3 4 1007.2 1007.1 0.0
07/10:30pm 13.4 13.5 10.3 81 1.6 CALM 0 2 0 1 1007.2 1007.1 0.0
07/10:00pm 13.5 12.3 10.4 81 1.6 SSE 7 9 4 5 1007.8 1007.7 0.0
07/09:30pm 13.7 11.8 10.5 81 1.7 S 11 15 6 8 1007.9 1007.8 0.0
07/09:00pm 14.3 11.6 10.5 78 2.0 S 15 19 8 10 1007.7 1007.6 0.0
07/08:30pm 14.4 12.5 10.6 78 2.0 S 11 17 6 9 1007.8 1007.7 0.0
07/08:00pm 15.1 11.5 10.4 73 2.5 SSW 20 28 11 15 1007.7 1007.6 0.0
07/07:30pm 15.7 12.1 10.4 71 2.8 SSW 20 28 11 15 1007.7 1007.6 0.0
07/07:00pm 17.0 12.9 10.0 63 3.7 S 22 28 12 15 1007.7 1007.6 0.0
07/06:30pm 18.2 14.7 10.2 59 4.3 S 19 28 10 15 1007.6 1007.5 0.0
07/06:00pm 19.5 15.9 10.0 54 5.1 SSW 19 24 10 13 1007.6 1007.5 0.0
07/05:30pm 19.7 15.9 9.8 52 5.3 SSW 20 28 11 15 1007.7 1007.6 0.0
07/05:00pm 20.8 16.7 10.1 50 5.8 SSE 22 28 12 15 1007.7 1007.6 0.0
07/04:30pm 19.0 16.0 10.5 58 4.6 SSE 17 26 9 14 1008.0 1007.9 0.0
07/04:00pm 22.9 17.8 6.0 33 8.6 NW 22 32 12 17 1008.0 1007.9 0.0
07/03:30pm 22.6 18.6 6.6 35 8.2 NW 17 22 9 12 1008.3 1008.2 0.0
07/03:00pm 21.9 17.4 6.1 36 8.0 NW 19 28 10 15 1008.4 1008.3 0.0
07/02:30pm 22.4 17.8 5.5 33 8.5 WNW 19 30 10 16 1008.5 1008.4 0.0
07/02:00pm 21.7 16.9 5.5 34 8.1 NW 20 33 11 18 1008.9 1008.8 0.0
07/01:30pm 20.7 16.2 6.2 39 7.3 NW 19 28 10 15 1009.2 1009.1 0.0
07/01:00pm 21.5 16.2 6.8 38 7.5 NW 24 33 13 18 1009.4 1009.3 0.0
07/12:30pm 20.5 15.9 6.4 40 7.1 WNW 20 30 11 16 1009.6 1009.5 0.0
07/12:00pm 19.6 13.6 7.0 44 6.4 NW 28 37 15 20 1009.9 1009.9 0.0
07/11:30am 20.9 14.9 7.0 40 7.1 WNW 28 39 15 21 1010.0 1010.0 0.0
07/11:00am 20.0 13.2 7.0 43 6.6 NW 32 41 17 22 1010.2 1010.2 0.0
07/10:30am 19.1 12.9 6.0 42 6.5 NW 28 39 15 21 1010.3 1010.3 0.0
07/10:00am 17.4 13.0 6.7 49 5.3 NW 19 30 10 16 1010.7 1010.7 0.0
07/09:30am 17.3 12.2 5.8 46 5.6 NW 22 32 12 17 1010.9 1010.9 0.0
07/09:00am 16.9 12.4 6.0 48 5.3 N 19 32 10 17 1011.1 1011.1 0.0
07/08:30am 16.5 12.4 6.3 51 5.0 N 17 24 9 13 1011.3 1011.3 0.0
07/08:00am 15.2 11.9 6.3 55 4.3 N 13 19 7 10 1011.2 1011.2 0.0
07/07:30am 14.3 10.2 6.2 58 3.9 N 17 22 9 12 1011.0 1011.0 0.0
07/07:00am 13.7 10.8 6.4 61 3.5 NNE 11 15 6 8 1011.1 1011.1 0.0
07/06:30am 12.5 9.1 5.9 64 3.1 NNE 13 19 7 10 1010.9 1010.9 0.0
07/06:00am 12.2 8.6 6.8 69 2.6 N 15 22 8 12 1010.7 1010.7 0.0
07/05:30am 12.3 9.2 5.4 63 3.2 NNW 11 19 6 10 1010.3 1010.3 0.0
07/05:00am 12.1 7.8 5.4 63 3.1 NNW 17 28 9 15 1010.0 1010.0 0.0
07/04:30am 12.4 8.6 5.6 63 3.2 NNW 15 22 8 12 1009.9 1009.9 0.0
07/04:00am 11.7 8.3 5.7 66 2.8 N 13 17 7 9 1009.8 1009.8 0.0
07/03:30am 12.7 8.9 5.7 62 3.3 N 15 20 8 11 1009.9 1009.9 0.0
07/03:00am 12.6 8.4 5.8 63 3.2 N 17 26 9 14 1009.9 1009.9 0.0
07/02:30am 12.9 8.6 5.2 59 3.6 NNW 17 24 9 13 1010.2 1010.2 0.0
07/02:00am 13.3 9.3 4.9 57 3.9 NNW 15 22 8 12 1010.4 1010.4 0.0
07/01:30am 13.5 9.2 5.2 57 3.9 N 17 24 9 13 1010.4 1010.4 0.0
07/01:00am 13.5 10.0 5.4 58 3.8 N 13 20 7 11 1010.5 1010.5 0.0
07/12:30am 14.0 9.1 5.0 54 4.2 NNW 20 30 11 16 1010.4 1010.4 0.0
07/12:00am 14.1 10.3 5.7 57 4.0 NNW 15 26 8 14 1010.6 1010.6 0.0
 
Date/Time
EDT
Temp
°C
App
Temp
°C
Dew
Point
°C
Rel
Hum
%
Delta-T
°C
Wind Press
QNH
hPa
Press
MSL
hPa
Rain since
9am
mm
Dir  Spd
km/h
Gust
km/h
Spd
kts
Gust
kts
06/11:30pm 14.0 10.3 6.1 59 3.8 NNW 15 20 8 11 1010.7 1010.7 0.0
06/11:00pm 13.1 10.6 6.7 65 3.1 NNW 9 15 5 8 1010.7 1010.7 0.0
06/10:30pm 14.0 10.9 5.5 56 4.0 NNW 11 17 6 9 1010.6 1010.6 0.0
06/10:00pm 14.8 10.7 4.5 50 4.8 NNW 15 20 8 11 1010.5 1010.5 0.0
06/09:30pm 15.2 9.2 3.1 44 5.5 WNW 24 30 13 16 1010.3 1010.3 0.0
06/09:00pm 15.4 10.4 3.6 45 5.4 NW 19 26 10 14 1010.3 1010.3 0.0
06/08:30pm 15.6 9.9 3.1 43 5.7 WNW 22 33 12 18 1009.8 1009.8 0.0
06/08:00pm 15.8 13.8 6.9 55 4.4 NE 7 9 4 5 1009.8 1009.8 0.0
06/07:30pm 15.8 14.0 8.1 60 3.9 ENE 7 11 4 6 1009.3 1009.2 0.0
06/07:00pm 15.2 13.0 8.0 62 3.6 E 9 11 5 6 1009.0 1008.9 0.0
06/06:30pm 15.0 12.8 8.0 63 3.5 NE 9 13 5 7 1008.9 1008.8 0.0
06/06:00pm 15.4 13.4 8.5 63 3.5 E 9 13 5 7 1008.5 1008.4 0.0
06/05:30pm 15.7 13.0 7.2 57 4.2 S 11 15 6 8 1008.5 1008.4 0.0
06/05:00pm 15.2 11.1 8.0 62 3.6 S 19 26 10 14 1008.6 1008.5 0.0
06/04:30pm 14.9 9.3 7.2 60 3.8 SSE 26 33 14 18 1008.8 1008.7 0.0
06/04:00pm 15.5 10.3 7.2 57 4.1 SSE 24 33 13 18 1008.8 1008.7 0.0
06/03:30pm 16.3 13.0 8.0 58 4.2 SSE 15 20 8 11 1008.6 1008.5 0.0
06/03:00pm 15.8 12.1 7.8 59 4.0 SE 17 22 9 12 1008.7 1008.6 0.0
06/02:30pm 18.1 14.2 7.2 49 5.5 SE 17 28 9 15 1008.5 1008.4 0.0
06/02:00pm 16.0 12.4 6.9 54 4.5 SE 15 19 8 10 1009.0 1008.9 0.0
06/01:30pm 16.5 13.1 7.5 55 4.5 SE 15 22 8 12 1009.2 1009.1 0.0
06/01:00pm 15.4 11.5 7.1 57 4.1 SE 17 22 9 12 1009.5 1009.4 0.0
06/12:30pm 15.1 11.7 7.7 61 3.7 SE 15 22 8 12 1009.8 1009.8 0.0
06/12:00pm 15.9 12.8 8.9 63 3.6 SE 15 19 8 10 1009.9 1009.9 0.0
06/11:30am 14.3 11.2 7.4 63 3.4 SSE 13 17 7 9 1010.3 1010.3 0.0
06/11:00am 14.1 11.8 7.4 64 3.3 SE 9 13 5 7 1010.2 1010.2 0.0
06/10:30am 14.0 11.3 7.3 64 3.3 SE 11 15 6 8 1010.5 1010.5 0.0
06/10:00am 13.3 11.4 7.4 67 2.9 SW 7 11 4 6 1010.7 1010.7 0.0
06/09:30am 12.8 10.7 6.8 67 2.9 ESE 7 13 4 7 1010.8 1010.8 0.0
06/09:00am 12.4 10.0 7.0 69 2.6 S 9 11 5 6 1011.4 1011.4 0.0
06/08:30am 11.5 9.1 7.1 74 2.1 S 9 11 5 6 1011.7 1011.7 0.0
06/08:00am 11.6 9.3 7.5 76 2.0 SSW 9 11 5 6 1011.6 1011.6 0.0
06/07:30am 11.1 8.0 7.1 76 1.9 SSW 13 17 7 9 1011.6 1011.6 0.0
06/07:00am 10.9 8.3 9.3 90 0.8 SSW 13 17 7 9 1011.4 1011.4 0.0
06/06:30am 11.6 9.7 9.2 85 1.2 WSW 9 13 5 7 1011.3 1011.3 0.0
06/06:00am 11.8 9.5 9.0 83 1.4 SSW 11 15 6 8 1010.9 1010.9 0.0
06/05:30am 12.0 10.0 8.6 80 1.7 WSW 9 11 5 6 1010.8 1010.8 0.0
06/05:00am 12.1 10.2 7.6 74 2.2 WNW 7 13 4 7 1010.6 1010.6 0.0
06/04:30am 12.4 10.3 6.8 68 2.7 WNW 7 9 4 5 1010.4 1010.4 0.0
06/04:00am 11.9 10.2 8.3 78 1.8 WNW 7 9 4 5 1010.3 1010.3 0.0
06/03:30am 11.4 9.2 7.7 78 1.8 WSW 9 11 5 6 1010.7 1010.7 0.0
06/03:00am 11.5 8.2 8.2 80 1.6 WNW 15 19 8 10 1011.1 1011.1 0.0
06/02:30am 12.4 9.6 8.6 77 1.9 NW 13 15 7 8 1011.0 1011.0 0.0
06/02:25am 12.3 9.9 8.7 79 1.8 NW 11 13 6 7 1011.1 1011.1 0.0
06/02:14am 12.5 10.2 9.1 80 1.7 NW 11 15 6 8 1011.3 1011.3 0.0
06/02:07am 12.7 10.3 8.7 76 2.0 N 11 19 6 10 1011.3 1011.3 0.0
06/02:00am 13.2 10.3 8.2 71 2.5 NNE 13 20 7 11 1011.3 1011.3 0.0
06/01:30am 12.9 9.9 6.2 64 3.2 NW 11 13 6 7 1011.5 1011.5 0.0
06/01:00am 12.7 10.1 7.6 71 2.5 NW 11 15 6 8 1011.6 1011.6 0.0
06/12:30am 12.8 10.1 5.8 62 3.3 NNW 9 13 5 7 1011.9 1011.9 0.0
06/12:00am 12.4 9.8 7.9 74 2.2 N 11 15 6 8 1012.4 1012.4 0.0
 
Date/Time
EDT
Temp
°C
App
Temp
°C
Dew
Point
°C
Rel
Hum
%
Delta-T
°C
Wind Press
QNH
hPa
Press
MSL
hPa
Rain since
9am
mm
Dir  Spd
km/h
Gust
km/h
Spd
kts
Gust
kts
05/11:30pm 12.8 9.6 5.0 59 3.6 N 11 17 6 9 1012.4 1012.4 0.0
05/11:00pm 13.6 10.1 3.6 51 4.5 N 11 15 6 8 1012.4 1012.4 0.0
05/10:30pm 13.9 10.6 4.3 52 4.4 NNW 11 17 6 9 1012.3 1012.3 0.0
05/10:00pm 14.5 11.3 5.1 53 4.4 NNW 11 15 6 8 1012.3 1012.3 0.0
05/09:30pm 15.2 10.8 4.5 49 5.0 NNW 17 24 9 13 1011.7 1011.7 0.0
05/09:00pm 15.4 11.5 3.3 44 5.5 WNW 13 17 7 9 1011.1 1011.1 0.0
05/08:30pm 15.5 11.7 3.8 45 5.4 W 13 17 7 9 1010.5 1010.5 0.0
05/08:00pm 16.9 11.5 2.6 38 6.5 WSW 20 30 11 16 1009.6 1009.5 0.0
05/07:30pm 18.2 13.4 2.8 35 7.1 W 17 24 9 13 1009.5 1009.4 0.0
05/07:00pm 18.6 12.8 2.2 33 7.5 W 22 30 12 16 1009.2 1009.1 0.0
05/06:30pm 19.1 12.9 2.1 32 7.8 NW 24 33 13 18 1008.8 1008.7 0.0
05/06:00pm 19.7 13.3 3.4 34 7.7 WNW 26 33 14 18 1008.2 1008.1 0.0
05/05:30pm 19.8 13.9 1.7 30 8.3 NW 22 32 12 17 1007.9 1007.8 0.0
05/05:00pm 20.0 12.9 3.3 33 7.9 NW 30 39 16 21 1007.5 1007.4 0.0
05/04:30pm 20.2 13.1 3.4 33 8.0 WNW 30 39 16 21 1007.2 1007.1 0.0
05/04:00pm 20.3 13.1 3.2 32 8.1 WNW 30 39 16 21 1007.0 1006.9 0.0
05/03:30pm 20.9 13.9 4.2 33 8.1 WNW 30 43 16 23 1006.6 1006.5 0.0
05/03:00pm 21.1 14.2 4.5 33 8.1 WNW 30 37 16 20 1006.4 1006.3 0.0
05/02:30pm 20.7 14.1 4.2 33 8.0 WNW 28 39 15 21 1005.8 1005.7 0.0
05/02:00pm 20.9 13.3 3.9 32 8.2 W 33 48 18 26 1005.5 1005.4 0.0
05/01:35pm 20.5 12.5 3.9 33 8.0 WNW 35 54 19 29 1005.1 1005.0 0.0
05/01:30pm 21.0 12.4 4.4 33 8.1 WNW 39 54 21 29 1005.0 1004.9 0.0
05/01:00pm 20.7 13.5 5.9 38 7.4 W 33 48 18 26 1004.6 1004.5 0.0
05/12:30pm 20.6 13.3 5.5 37 7.5 W 33 56 18 30 1004.1 1004.0 0.0
05/12:16pm 20.7 12.2 5.1 36 7.7 WNW 39 57 21 31 1003.7 1003.6 0.0
05/12:00pm 20.5 12.6 6.2 39 7.2 WNW 37 50 20 27 1003.6 1003.5 0.0
05/11:30am 19.6 11.3 6.0 41 6.8 WNW 39 57 21 31 1003.3 1003.2 0.0
05/11:04am 19.1 10.2 5.2 40 6.8 W 41 63 22 34 1002.7 1002.6 0.0

Other Formats:

Comma delimited format used in spreadsheet applications
http://www.bom.gov.au/fwo/IDT60801/IDT60801.94975.axf

JavaScript Object Notation format (JSON) in row-major order
http://www.bom.gov.au/fwo/IDT60801/IDT60801.94975.json